createdAt,value
2022-09-22T00:00:32.788Z,83.12
2022-09-22T00:03:02.468Z,82.53
2022-09-22T00:05:32.089Z,82.56
2022-09-22T00:08:05.287Z,82.53
2022-09-22T00:10:34.867Z,82.83
2022-09-22T00:13:04.487Z,82.85
2022-09-22T00:15:34.944Z,82.60
2022-09-22T00:18:04.588Z,83.25
2022-09-22T00:20:34.280Z,83.43
2022-09-22T00:23:06.490Z,83.14
2022-09-22T00:25:36.209Z,83.13
2022-09-22T00:28:05.876Z,83.41
2022-09-22T00:30:35.571Z,82.94
2022-09-22T00:33:05.226Z,82.97
2022-09-22T00:35:38.021Z,82.70
2022-09-22T00:38:10.543Z,82.64
2022-09-22T00:40:40.231Z,83.03
2022-09-22T00:43:21.694Z,82.35
2022-09-22T00:45:54.844Z,82.63
2022-09-22T00:48:27.333Z,82.27
2022-09-22T00:50:59.380Z,82.68
2022-09-22T00:53:32.385Z,82.58
2022-09-22T00:56:06.532Z,82.80
2022-09-22T00:58:39.825Z,82.19
2022-09-22T01:01:09.968Z,81.81
2022-09-22T01:03:42.725Z,81.89
2022-09-22T01:06:17.172Z,82.17
2022-09-22T01:08:49.700Z,81.90
2022-09-22T01:11:21.022Z,82.15
2022-09-22T01:14:06.797Z,81.74
2022-09-22T01:16:48.751Z,82.24
2022-09-22T01:19:43.770Z,82.17
2022-09-22T01:22:32.667Z,82.77
2022-09-22T01:25:26.103Z,82.99
2022-09-22T01:28:15.417Z,83.04
2022-09-22T01:30:50.808Z,83.18
2022-09-22T01:33:29.428Z,83.36
2022-09-22T01:36:11.373Z,83.35
2022-09-22T01:38:48.688Z,83.55
2022-09-22T01:41:24.180Z,83.68
2022-09-22T01:43:58.320Z,83.80
2022-09-22T01:46:34.721Z,83.40
2022-09-22T01:49:10.612Z,83.61
2022-09-22T01:51:46.070Z,83.90
2022-09-22T01:54:19.795Z,83.77
2022-09-22T01:56:54.748Z,83.45
2022-09-22T01:59:28.254Z,83.75
2022-09-22T02:02:05.970Z,83.17
2022-09-22T02:04:40.010Z,83.98
2022-09-22T02:07:12.655Z,83.85
2022-09-22T02:09:44.987Z,83.75
2022-09-22T02:12:15.944Z,83.10
2022-09-22T02:14:45.543Z,83.34
2022-09-22T02:17:18.942Z,82.89
2022-09-22T02:19:48.714Z,83.26
2022-09-22T02:22:18.348Z,82.81
2022-09-22T02:24:49.242Z,82.42
2022-09-22T02:27:25.754Z,82.45
2022-09-22T02:29:59.799Z,82.12
2022-09-22T02:32:33.523Z,81.34
2022-09-22T02:35:03.196Z,82.58
2022-09-22T02:37:42.319Z,82.70
2022-09-22T02:40:19.660Z,83.00
2022-09-22T02:42:54.928Z,83.24
2022-09-22T02:45:29.035Z,83.31
2022-09-22T02:48:04.628Z,83.56
2022-09-22T02:50:36.546Z,83.70
2022-09-22T02:53:08.109Z,83.50
2022-09-22T02:55:37.742Z,83.26
2022-09-22T02:58:07.400Z,83.90
2022-09-22T03:00:37.498Z,83.88
2022-09-22T03:03:10.975Z,83.88
2022-09-22T03:05:40.950Z,83.55
2022-09-22T03:08:10.663Z,83.96
2022-09-22T03:10:40.288Z,83.72
2022-09-22T03:13:16.282Z,83.21
2022-09-22T03:15:46.762Z,83.37
2022-09-22T03:18:19.091Z,83.25
2022-09-22T03:20:48.875Z,83.47
2022-09-22T03:23:18.754Z,83.15
2022-09-22T03:25:48.368Z,83.59
2022-09-22T03:28:18.048Z,83.44
2022-09-22T03:30:47.734Z,83.45
2022-09-22T03:33:20.100Z,82.33
2022-09-22T03:35:49.788Z,82.58
2022-09-22T03:38:19.405Z,82.72
2022-09-22T03:40:53.453Z,82.75
2022-09-22T03:43:23.391Z,84.00
2022-09-22T03:45:59.124Z,83.76
2022-09-22T03:48:32.655Z,84.20
2022-09-22T03:51:02.278Z,84.91
2022-09-22T03:53:31.945Z,86.27
2022-09-22T03:56:11.186Z,85.46
2022-09-22T03:58:41.436Z,86.33
2022-09-22T04:01:12.935Z,85.59
2022-09-22T04:03:45.157Z,85.36
2022-09-22T04:06:15.125Z,85.17
2022-09-22T04:08:44.925Z,84.26
2022-09-22T04:11:14.535Z,83.76
2022-09-22T04:13:46.464Z,83.24
2022-09-22T04:16:16.415Z,83.05
2022-09-22T04:18:48.874Z,82.61
2022-09-22T04:21:18.500Z,82.85
2022-09-22T04:23:48.303Z,83.03
2022-09-22T04:26:18.090Z,83.25
2022-09-22T04:28:47.718Z,83.02
2022-09-22T04:31:17.489Z,82.76
2022-09-22T04:33:49.746Z,83.36
2022-09-22T04:36:19.608Z,83.29
2022-09-22T04:38:49.282Z,84.09
2022-09-22T04:41:19.219Z,83.35
2022-09-22T04:43:48.827Z,82.99
2022-09-22T04:46:18.700Z,83.86
2022-09-22T04:48:50.942Z,83.82
2022-09-22T04:51:20.520Z,84.43
2022-09-22T04:53:50.124Z,84.43
2022-09-22T04:56:19.723Z,84.28
2022-09-22T04:58:49.374Z,84.02
2022-09-22T05:01:19.011Z,84.21
2022-09-22T05:03:51.466Z,84.51
2022-09-22T05:06:21.103Z,83.73
2022-09-22T05:08:50.774Z,83.85
2022-09-22T05:11:23.772Z,84.20
2022-09-22T05:13:53.772Z,83.61
2022-09-22T05:16:23.533Z,84.30
2022-09-22T05:18:55.956Z,83.96
2022-09-22T05:21:25.581Z,83.73
2022-09-22T05:23:55.269Z,83.48
2022-09-22T05:26:24.896Z,83.22
2022-09-22T05:28:54.585Z,84.19
2022-09-22T05:31:24.267Z,84.41
2022-09-22T05:33:56.627Z,84.47
2022-09-22T05:36:26.228Z,84.78
2022-09-22T05:38:55.843Z,84.34
2022-09-22T05:41:25.422Z,84.02
2022-09-22T05:43:55.259Z,84.47
2022-09-22T05:46:24.892Z,84.89
2022-09-22T05:48:57.217Z,85.01
2022-09-22T05:51:26.910Z,85.80
2022-09-22T05:53:56.746Z,86.30
2022-09-22T05:56:26.331Z,86.43
2022-09-22T05:58:55.961Z,87.44
2022-09-22T06:01:25.665Z,87.23
2022-09-22T06:03:58.131Z,87.10
2022-09-22T06:06:27.874Z,87.04
2022-09-22T06:08:57.456Z,87.00
2022-09-22T06:11:27.158Z,87.24
2022-09-22T06:13:56.827Z,87.97
2022-09-22T06:16:26.716Z,88.45
2022-09-22T06:18:58.977Z,87.79
2022-09-22T06:21:28.625Z,88.38
2022-09-22T06:23:58.208Z,88.51
2022-09-22T06:26:27.967Z,88.13
2022-09-22T06:28:57.908Z,88.39
2022-09-22T06:31:27.544Z,87.60
2022-09-22T06:34:01.485Z,87.56
2022-09-22T06:36:33.131Z,87.96
2022-09-22T06:39:04.443Z,87.46
2022-09-22T06:41:36.019Z,87.65
2022-09-22T06:44:06.930Z,87.70
2022-09-22T06:46:37.963Z,87.48
2022-09-22T06:49:10.525Z,87.28
2022-09-22T06:51:40.178Z,86.87
2022-09-22T06:54:09.955Z,87.04
2022-09-22T06:56:42.704Z,86.79
2022-09-22T06:59:14.302Z,86.83
2022-09-22T07:01:45.949Z,87.48
2022-09-22T07:04:20.064Z,87.86
2022-09-22T07:06:50.435Z,88.15
2022-09-22T07:09:20.105Z,87.67
2022-09-22T07:11:50.298Z,87.83
2022-09-22T07:14:22.427Z,87.90
2022-09-22T07:16:55.381Z,88.33
2022-09-22T07:19:27.612Z,87.98
2022-09-22T07:21:57.462Z,88.89
2022-09-22T07:24:27.882Z,88.66
2022-09-22T07:26:58.159Z,88.74
2022-09-22T07:29:28.257Z,88.45
2022-09-22T07:31:59.360Z,88.45
2022-09-22T07:34:32.870Z,88.01
2022-09-22T07:37:03.072Z,88.50
2022-09-22T07:39:32.678Z,89.49
2022-09-22T07:42:02.286Z,89.18
2022-09-22T07:44:44.819Z,89.40
2022-09-22T07:47:14.517Z,89.64
2022-09-22T07:49:50.706Z,89.33
2022-09-22T07:52:24.966Z,89.10
2022-09-22T07:54:54.634Z,89.29
2022-09-22T07:57:25.295Z,89.15
2022-09-22T07:59:57.529Z,89.40
2022-09-22T08:02:28.788Z,88.93
2022-09-22T08:05:09.382Z,88.65
2022-09-22T08:07:40.103Z,88.29
2022-09-22T08:10:12.795Z,87.63
2022-09-22T08:12:48.900Z,86.92
2022-09-22T08:15:26.889Z,86.34
2022-09-22T08:17:59.329Z,85.00
2022-09-22T08:20:31.652Z,83.75
2022-09-22T08:23:01.435Z,82.64
2022-09-22T08:25:31.273Z,82.14
2022-09-22T08:28:04.578Z,80.33
2022-09-22T08:30:36.445Z,79.81
2022-09-22T08:33:07.294Z,78.83
2022-09-22T08:35:40.596Z,78.89
2022-09-22T08:38:12.869Z,79.24
2022-09-22T08:40:47.123Z,79.90
2022-09-22T08:43:20.255Z,80.25
2022-09-22T08:45:54.566Z,79.81
2022-09-22T08:48:42.931Z,79.90
2022-09-22T08:51:33.940Z,79.76
2022-09-22T08:54:04.509Z,79.51
2022-09-22T08:56:42.349Z,79.11
2022-09-22T08:59:23.010Z,78.19
2022-09-22T09:02:11.367Z,78.01
2022-09-22T09:05:01.546Z,78.47
2022-09-22T09:07:44.001Z,77.17
2022-09-22T09:10:30.423Z,76.98
2022-09-22T09:13:22.108Z,77.20
2022-09-22T09:16:04.719Z,78.26
2022-09-22T09:18:39.889Z,78.87
2022-09-22T09:21:16.411Z,75.77
2022-09-22T09:26:42.127Z,72.00
2022-09-22T09:29:19.651Z,73.67
2022-09-22T09:31:58.520Z,73.74
2022-09-22T09:34:33.415Z,73.58
2022-09-22T09:37:09.131Z,73.05
2022-09-22T09:39:44.366Z,71.77
2022-09-22T09:42:24.946Z,70.52
2022-09-22T09:45:02.575Z,70.24
2022-09-22T09:47:59.070Z,67.54
2022-09-22T09:50:32.451Z,69.17
2022-09-22T09:53:02.809Z,69.06
2022-09-22T09:55:35.809Z,69.86
2022-09-22T09:58:10.859Z,69.11
2022-09-22T10:00:56.618Z,68.45
2022-09-22T10:03:30.857Z,66.74
2022-09-22T10:06:09.277Z,68.31
2022-09-22T10:08:45.872Z,67.90
2022-09-22T10:11:18.380Z,66.98
2022-09-22T10:13:58.773Z,66.88
2022-09-22T10:16:33.482Z,67.35
2022-09-22T10:19:21.969Z,66.58
2022-09-22T10:21:52.920Z,66.38
2022-09-22T10:24:33.168Z,64.90
2022-09-22T10:27:07.486Z,65.01
2022-09-22T10:29:41.909Z,65.45
2022-09-22T10:32:18.683Z,64.41
2022-09-22T10:34:50.821Z,64.28
2022-09-22T10:37:28.102Z,63.85
2022-09-22T10:40:04.173Z,64.22
2022-09-22T10:42:41.014Z,63.50
2022-09-22T10:45:15.410Z,62.69
2022-09-22T10:48:00.396Z,61.78
2022-09-22T10:51:01.655Z,61.78
2022-09-22T10:54:08.788Z,60.67
2022-09-22T10:56:42.287Z,62.47
2022-09-22T10:59:38.565Z,62.16
2022-09-22T11:02:38.284Z,63.14
2022-09-22T11:05:42.858Z,61.87
2022-09-22T11:08:30.873Z,60.77
2022-09-22T11:11:23.726Z,60.07
2022-09-22T11:14:08.532Z,60.42
2022-09-22T11:17:00.003Z,61.97
2022-09-22T11:19:49.268Z,59.84
2022-09-22T11:22:34.894Z,59.48
2022-09-22T11:25:28.198Z,58.80
2022-09-22T11:28:11.862Z,58.02
2022-09-22T11:30:47.339Z,56.90
2022-09-22T11:33:47.143Z,58.34
2022-09-22T11:36:31.448Z,58.42
2022-09-22T11:39:22.112Z,56.34
2022-09-22T11:42:02.299Z,52.91
2022-09-22T11:44:41.716Z,53.36
2022-09-22T11:47:44.742Z,55.31
2022-09-22T11:50:49.847Z,55.55
2022-09-22T11:53:45.623Z,55.60
2022-09-22T11:56:30.021Z,54.95
2022-09-22T11:59:05.276Z,55.69
2022-09-22T12:01:40.689Z,53.72
2022-09-22T12:04:22.267Z,52.25
2022-09-22T12:06:57.354Z,52.06
2022-09-22T12:09:40.471Z,51.05
2022-09-22T12:12:17.569Z,50.92
2022-09-22T12:14:47.911Z,51.17
2022-09-22T12:17:24.845Z,52.17
2022-09-22T12:20:01.649Z,58.60
2022-09-22T12:22:38.881Z,52.55
2022-09-22T12:25:21.196Z,49.94
2022-09-22T12:28:02.586Z,49.43
2022-09-22T12:30:34.377Z,52.45
2022-09-22T12:33:05.189Z,52.99
2022-09-22T12:35:34.844Z,51.33
2022-09-22T12:38:05.504Z,54.09
2022-09-22T12:40:41.647Z,53.74
2022-09-22T12:43:19.230Z,54.26
2022-09-22T12:45:53.079Z,56.91
2022-09-22T12:48:27.232Z,57.74
2022-09-22T12:51:18.393Z,56.63
2022-09-22T12:53:48.142Z,55.03
2022-09-22T12:56:55.545Z,54.87
2022-09-22T13:00:24.394Z,55.99
2022-09-22T13:02:56.400Z,55.68
2022-09-22T13:05:46.841Z,55.60
2022-09-22T13:08:26.002Z,55.32
2022-09-22T13:11:03.060Z,52.25
2022-09-22T13:13:44.171Z,50.13
2022-09-22T13:16:37.294Z,50.72
2022-09-22T13:19:15.106Z,49.11
2022-09-22T13:21:48.782Z,50.61
2022-09-22T13:24:27.380Z,51.43
2022-09-22T13:27:06.106Z,53.76
2022-09-22T13:29:40.104Z,54.71
2022-09-22T13:32:26.949Z,54.86
2022-09-22T13:34:57.025Z,56.01
2022-09-22T13:37:27.890Z,55.06
2022-09-22T13:39:58.721Z,54.73
2022-09-22T13:42:32.616Z,50.57
2022-09-22T13:45:09.065Z,50.00
2022-09-22T13:47:40.179Z,50.73
2022-09-22T13:50:19.565Z,49.82
2022-09-22T13:52:53.129Z,51.18
2022-09-22T13:55:27.639Z,53.11
2022-09-22T13:58:00.880Z,51.46
2022-09-22T14:00:50.081Z,50.98
2022-09-22T14:03:29.342Z,51.70
2022-09-22T14:06:02.209Z,50.19
2022-09-22T14:08:35.624Z,51.07
2022-09-22T14:11:09.365Z,49.17
2022-09-22T14:13:45.495Z,48.77
2022-09-22T14:16:27.059Z,48.85
2022-09-22T14:19:07.750Z,48.57
2022-09-22T14:21:47.196Z,48.99
2022-09-22T14:24:22.452Z,51.70
2022-09-22T14:27:00.201Z,54.48
2022-09-22T14:29:36.027Z,51.39
2022-09-22T14:32:14.271Z,51.65
2022-09-22T14:34:49.983Z,52.23
2022-09-22T14:37:26.211Z,53.57
2022-09-22T14:39:57.473Z,54.33
2022-09-22T14:42:30.331Z,56.34
2022-09-22T14:45:29.547Z,54.79
2022-09-22T14:48:20.643Z,52.87
2022-09-22T14:50:59.647Z,51.35
2022-09-22T14:53:33.881Z,51.81
2022-09-22T14:56:09.159Z,53.74
2022-09-22T14:58:41.652Z,53.58
2022-09-22T15:01:35.538Z,52.83
2022-09-22T15:04:14.732Z,53.04
2022-09-22T15:06:48.198Z,52.64
2022-09-22T15:09:26.547Z,51.90
2022-09-22T15:12:00.462Z,52.65
2022-09-22T15:14:41.678Z,52.50
2022-09-22T15:17:50.210Z,52.16
2022-09-22T15:20:22.865Z,52.05
2022-09-22T15:22:54.739Z,53.98
2022-09-22T15:25:26.320Z,53.00
2022-09-22T15:27:56.181Z,53.86
2022-09-22T15:30:26.158Z,54.05
2022-09-22T15:32:57.946Z,55.36
2022-09-22T15:35:30.302Z,58.08
2022-09-22T15:38:01.090Z,58.64
2022-09-22T15:40:31.998Z,58.94
2022-09-22T15:43:13.185Z,58.97
2022-09-22T15:45:50.289Z,59.02
2022-09-22T15:48:27.819Z,59.10
2022-09-22T15:51:04.537Z,58.98
2022-09-22T15:53:37.868Z,58.04
2022-09-22T15:56:15.296Z,57.25
2022-09-22T15:58:46.380Z,56.36
2022-09-22T16:01:19.608Z,55.76
2022-09-22T16:03:50.347Z,55.45
2022-09-22T16:06:23.984Z,55.50
2022-09-22T16:08:55.421Z,55.31
2022-09-22T16:11:30.001Z,55.33
2022-09-22T16:14:01.754Z,56.18
2022-09-22T16:16:32.409Z,56.26
2022-09-22T16:19:02.709Z,56.65
2022-09-22T16:21:36.901Z,56.79
2022-09-22T16:24:10.595Z,57.53
2022-09-22T16:26:42.858Z,58.54
2022-09-22T16:29:13.560Z,58.80
2022-09-22T16:31:44.378Z,58.59
2022-09-22T16:34:14.152Z,59.34
2022-09-22T16:36:46.408Z,59.27
2022-09-22T16:39:17.222Z,59.42
2022-09-22T16:41:48.444Z,60.52
2022-09-22T16:44:18.418Z,57.79
2022-09-22T16:46:48.094Z,59.09
2022-09-22T16:49:20.427Z,60.21
2022-09-22T16:51:55.094Z,59.87
2022-09-22T16:54:25.150Z,60.56
2022-09-22T16:56:56.849Z,61.09
2022-09-22T16:59:28.104Z,61.27
2022-09-22T17:01:58.768Z,61.34
2022-09-22T17:04:29.648Z,61.84
2022-09-22T17:07:05.897Z,62.02
2022-09-22T17:09:36.889Z,62.75
2022-09-22T17:12:10.861Z,63.42
2022-09-22T17:14:41.514Z,63.62
2022-09-22T17:17:12.266Z,63.22
2022-09-22T17:19:43.310Z,63.43
2022-09-22T17:22:15.574Z,63.99
2022-09-22T17:24:45.659Z,65.00
2022-09-22T17:27:15.373Z,66.57
2022-09-22T17:29:45.186Z,67.24
2022-09-22T17:32:15.909Z,67.22
2022-09-22T17:34:45.557Z,67.60
2022-09-22T17:37:20.292Z,68.41
2022-09-22T17:39:49.943Z,69.08
2022-09-22T17:42:21.556Z,69.54
2022-09-22T17:44:51.287Z,69.67
2022-09-22T17:47:48.252Z,68.00
2022-09-22T17:50:30.380Z,63.38
2022-09-22T17:53:16.071Z,66.06
2022-09-22T17:55:45.779Z,67.23
2022-09-22T17:58:15.498Z,68.46
2022-09-22T18:00:45.221Z,69.55
2022-09-22T18:03:14.977Z,70.06
2022-09-22T18:05:45.178Z,71.29
2022-09-22T18:08:19.416Z,71.71
2022-09-22T18:10:49.058Z,72.84
2022-09-22T18:13:19.715Z,73.96
2022-09-22T18:15:50.956Z,74.34
2022-09-22T18:18:20.642Z,75.42
2022-09-22T18:20:50.507Z,76.00
2022-09-22T18:23:28.370Z,76.35
2022-09-22T18:25:58.443Z,77.81
2022-09-22T18:28:28.065Z,77.27
2022-09-22T18:30:57.737Z,77.00
2022-09-22T18:33:27.421Z,77.13
2022-09-22T18:35:59.230Z,76.79
2022-09-22T18:38:33.516Z,76.57
2022-09-22T18:41:04.277Z,76.79
2022-09-22T18:43:33.932Z,76.98
2022-09-22T18:46:07.322Z,77.43
2022-09-22T18:48:40.306Z,77.97
2022-09-22T18:51:09.919Z,78.18
2022-09-22T18:53:43.468Z,77.91
2022-09-22T18:56:14.058Z,78.25
2022-09-22T18:58:43.656Z,78.65
2022-09-22T19:01:15.675Z,78.33
2022-09-22T19:03:48.081Z,78.12
2022-09-22T19:06:20.839Z,78.26
2022-09-22T19:08:54.552Z,77.96
2022-09-22T19:11:25.244Z,78.01
2022-09-22T19:13:55.387Z,77.92
2022-09-22T19:16:26.106Z,77.71
2022-09-22T19:18:55.799Z,77.80
2022-09-22T19:21:25.489Z,77.55
2022-09-22T19:23:57.867Z,77.33
2022-09-22T19:26:28.307Z,77.74
2022-09-22T19:28:58.071Z,77.51
2022-09-22T19:31:28.764Z,77.49
2022-09-22T19:33:58.546Z,77.91
2022-09-22T19:36:30.459Z,77.78
2022-09-22T19:39:02.971Z,77.55
2022-09-22T19:41:35.819Z,78.16
2022-09-22T19:44:05.677Z,78.44
2022-09-22T19:46:36.465Z,79.00
2022-09-22T19:49:06.856Z,79.31
2022-09-22T19:51:37.602Z,79.65
2022-09-22T19:54:09.884Z,79.47
2022-09-22T19:56:39.602Z,80.37
2022-09-22T19:59:11.263Z,80.17
2022-09-22T20:01:43.097Z,79.98
2022-09-22T20:04:17.921Z,80.40
2022-09-22T20:06:48.779Z,80.78
2022-09-22T20:09:23.089Z,80.50
2022-09-22T20:11:53.772Z,80.43
2022-09-22T20:14:25.317Z,80.11
2022-09-22T20:16:59.809Z,79.90
2022-09-22T20:19:31.376Z,80.17
2022-09-22T20:22:20.936Z,80.01
2022-09-22T20:24:57.494Z,80.50
2022-09-22T20:27:30.328Z,80.67
2022-09-22T20:30:00.450Z,80.08
2022-09-22T20:32:33.070Z,80.05
2022-09-22T20:35:04.304Z,79.88
2022-09-22T20:37:34.037Z,79.92
2022-09-22T20:40:07.535Z,79.19
2022-09-22T20:42:37.386Z,79.52
2022-09-22T20:45:08.122Z,79.61
2022-09-22T20:47:37.891Z,79.96
2022-09-22T20:50:09.743Z,79.90
2022-09-22T20:52:42.525Z,80.04
2022-09-22T20:55:18.179Z,80.07
2022-09-22T20:57:47.900Z,80.51
2022-09-22T21:00:18.006Z,80.92
2022-09-22T21:02:48.724Z,81.19
2022-09-22T21:05:19.548Z,81.28
2022-09-22T21:08:09.187Z,81.61
2022-09-22T21:10:38.829Z,81.41
2022-09-22T21:13:09.585Z,81.23
2022-09-22T21:15:39.533Z,81.70
2022-09-22T21:18:11.262Z,82.13
2022-09-22T21:20:42.869Z,81.95
2022-09-22T21:23:12.526Z,82.36
2022-09-22T21:25:45.812Z,81.58
2022-09-22T21:28:16.443Z,81.39
2022-09-22T21:30:46.119Z,81.10
2022-09-22T21:33:17.494Z,80.47
2022-09-22T21:35:47.132Z,80.94
2022-09-22T21:38:17.741Z,81.05
2022-09-22T21:40:50.027Z,80.90
2022-09-22T21:43:23.299Z,80.45
2022-09-22T21:46:05.016Z,79.05
2022-09-22T21:48:37.685Z,79.54
2022-09-22T21:51:09.931Z,80.08
2022-09-22T21:53:44.081Z,80.09
2022-09-22T21:56:17.851Z,80.95
2022-09-22T21:58:50.304Z,81.15
2022-09-22T22:01:23.843Z,81.14
2022-09-22T22:03:55.927Z,81.13
2022-09-22T22:06:26.973Z,81.19
2022-09-22T22:09:02.384Z,81.19
2022-09-22T22:11:36.782Z,80.90
2022-09-22T22:14:08.872Z,80.94
2022-09-22T22:16:40.268Z,81.17
2022-09-22T22:19:12.081Z,81.46
2022-09-22T22:21:43.567Z,81.71
2022-09-22T22:24:33.389Z,81.55
2022-09-22T22:27:10.175Z,81.61
2022-09-22T22:29:41.268Z,81.90
2022-09-22T22:32:12.519Z,81.40
2022-09-22T22:34:42.133Z,81.53
2022-09-22T22:37:11.846Z,81.79
2022-09-22T22:39:41.429Z,81.93
2022-09-22T22:42:13.603Z,81.79
2022-09-22T22:44:43.180Z,81.67
2022-09-22T22:47:13.096Z,82.21
2022-09-22T22:49:43.071Z,82.11
2022-09-22T22:52:12.644Z,82.00
2022-09-22T22:54:42.273Z,82.04
2022-09-22T22:57:14.553Z,81.98
2022-09-22T22:59:44.184Z,82.27
2022-09-22T23:02:13.796Z,82.37
2022-09-22T23:04:43.390Z,82.21
2022-09-22T23:07:13.040Z,82.92
2022-09-22T23:09:42.610Z,83.09
2022-09-22T23:12:15.295Z,82.20
2022-09-22T23:14:44.909Z,81.90
2022-09-22T23:17:15.365Z,82.35
2022-09-22T23:19:45.524Z,82.30
2022-09-22T23:22:15.114Z,82.65
2022-09-22T23:24:44.703Z,82.67
2022-09-22T23:27:17.041Z,82.83
2022-09-22T23:29:46.677Z,82.61
2022-09-22T23:32:16.633Z,82.06
2022-09-22T23:34:46.251Z,82.52
2022-09-22T23:37:15.824Z,83.01
2022-09-22T23:39:45.480Z,82.76
2022-09-22T23:42:17.727Z,82.66
2022-09-22T23:44:47.426Z,83.09
2022-09-22T23:47:17.028Z,83.36
2022-09-22T23:49:46.813Z,83.57
2022-09-22T23:52:16.405Z,83.51
2022-09-22T23:54:45.978Z,83.49
2022-09-22T23:57:18.164Z,83.12
2022-09-22T23:59:47.836Z,82.74
